sensor_id;sensor_type;location;lat;lon;timestamp;temperature;humidity
15357;DHT22;7778;48.792;9.260;2022-07-29T00:02:09;20.10;99.90
15357;DHT22;7778;48.792;9.260;2022-07-29T00:04:55;20.10;99.90
15357;DHT22;7778;48.792;9.260;2022-07-29T00:07:42;20.20;99.90
15357;DHT22;7778;48.792;9.260;2022-07-29T00:10:28;20.20;99.90
15357;DHT22;7778;48.792;9.260;2022-07-29T00:13:13;20.20;99.90
15357;DHT22;7778;48.792;9.260;2022-07-29T00:15:59;20.30;99.90
15357;DHT22;7778;48.792;9.260;2022-07-29T00:18:45;20.30;99.90
15357;DHT22;7778;48.792;9.260;2022-07-29T00:21:31;20.10;99.90
15357;DHT22;7778;48.792;9.260;2022-07-29T00:24:18;19.90;99.90
15357;DHT22;7778;48.792;9.260;2022-07-29T00:27:04;19.80;99.90
15357;DHT22;7778;48.792;9.260;2022-07-29T00:29:49;19.70;99.90
15357;DHT22;7778;48.792;9.260;2022-07-29T00:32:35;19.80;99.90
15357;DHT22;7778;48.792;9.260;2022-07-29T00:35:21;20.00;99.90
15357;DHT22;7778;48.792;9.260;2022-07-29T00:38:24;20.10;99.90
15357;DHT22;7778;48.792;9.260;2022-07-29T00:41:11;19.90;99.90
15357;DHT22;7778;48.792;9.260;2022-07-29T00:43:57;19.90;99.90
15357;DHT22;7778;48.792;9.260;2022-07-29T00:46:43;19.90;99.90
15357;DHT22;7778;48.792;9.260;2022-07-29T00:49:28;19.80;99.90
15357;DHT22;7778;48.792;9.260;2022-07-29T00:52:14;19.80;99.90
15357;DHT22;7778;48.792;9.260;2022-07-29T00:55:00;19.80;99.90
15357;DHT22;7778;48.792;9.260;2022-07-29T00:57:47;19.70;99.90
15357;DHT22;7778;48.792;9.260;2022-07-29T01:00:34;19.60;99.90
15357;DHT22;7778;48.792;9.260;2022-07-29T01:03:21;19.70;99.90
15357;DHT22;7778;48.792;9.260;2022-07-29T01:06:07;19.80;99.90
15357;DHT22;7778;48.792;9.260;2022-07-29T01:08:52;19.70;99.90
15357;DHT22;7778;48.792;9.260;2022-07-29T01:11:38;19.50;99.90
15357;DHT22;7778;48.792;9.260;2022-07-29T01:14:26;19.60;99.90
15357;DHT22;7778;48.792;9.260;2022-07-29T01:17:18;19.70;99.90
15357;DHT22;7778;48.792;9.260;2022-07-29T01:20:10;19.90;99.90
15357;DHT22;7778;48.792;9.260;2022-07-29T01:23:25;19.90;99.90
15357;DHT22;7778;48.792;9.260;2022-07-29T01:26:31;20.10;99.90
15357;DHT22;7778;48.792;9.260;2022-07-29T01:29:25;20.00;99.90
15357;DHT22;7778;48.792;9.260;2022-07-29T01:32:15;20.00;99.90
15357;DHT22;7778;48.792;9.260;2022-07-29T01:35:06;20.10;99.90
15357;DHT22;7778;48.792;9.260;2022-07-29T01:38:00;20.20;99.90
15357;DHT22;7778;48.792;9.260;2022-07-29T01:40:51;20.20;99.90
15357;DHT22;7778;48.792;9.260;2022-07-29T01:43:44;20.20;99.90
15357;DHT22;7778;48.792;9.260;2022-07-29T01:46:36;20.10;99.90
15357;DHT22;7778;48.792;9.260;2022-07-29T01:49:27;19.90;99.90
15357;DHT22;7778;48.792;9.260;2022-07-29T01:52:18;19.80;99.90
15357;DHT22;7778;48.792;9.260;2022-07-29T01:55:15;20.00;99.90
15357;DHT22;7778;48.792;9.260;2022-07-29T01:58:04;20.00;99.90
15357;DHT22;7778;48.792;9.260;2022-07-29T02:00:51;20.10;99.90
15357;DHT22;7778;48.792;9.260;2022-07-29T02:03:43;20.00;99.90
15357;DHT22;7778;48.792;9.260;2022-07-29T02:06:30;20.00;99.90
15357;DHT22;7778;48.792;9.260;2022-07-29T02:09:19;20.00;99.90
15357;DHT22;7778;48.792;9.260;2022-07-29T02:12:07;19.90;99.90
15357;DHT22;7778;48.792;9.260;2022-07-29T02:14:53;19.70;99.90
15357;DHT22;7778;48.792;9.260;2022-07-29T02:17:42;19.70;99.90
15357;DHT22;7778;48.792;9.260;2022-07-29T02:20:33;19.70;99.90
15357;DHT22;7778;48.792;9.260;2022-07-29T02:23:21;19.60;99.90
15357;DHT22;7778;48.792;9.260;2022-07-29T02:26:09;19.50;99.90
15357;DHT22;7778;48.792;9.260;2022-07-29T02:28:56;19.40;99.90
15357;DHT22;7778;48.792;9.260;2022-07-29T02:31:44;19.50;99.90
15357;DHT22;7778;48.792;9.260;2022-07-29T02:34:32;19.30;99.90
15357;DHT22;7778;48.792;9.260;2022-07-29T02:37:21;19.40;99.90
15357;DHT22;7778;48.792;9.260;2022-07-29T02:40:10;19.50;99.90
15357;DHT22;7778;48.792;9.260;2022-07-29T02:42:56;19.50;99.90
15357;DHT22;7778;48.792;9.260;2022-07-29T02:45:43;19.40;99.90
15357;DHT22;7778;48.792;9.260;2022-07-29T02:48:34;19.30;99.90
15357;DHT22;7778;48.792;9.260;2022-07-29T02:51:27;19.20;99.90
15357;DHT22;7778;48.792;9.260;2022-07-29T02:54:21;19.20;99.90
15357;DHT22;7778;48.792;9.260;2022-07-29T02:57:14;19.20;99.90
15357;DHT22;7778;48.792;9.260;2022-07-29T03:00:07;19.10;99.90
15357;DHT22;7778;48.792;9.260;2022-07-29T03:02:56;19.00;99.90
15357;DHT22;7778;48.792;9.260;2022-07-29T03:05:43;19.00;99.90
15357;DHT22;7778;48.792;9.260;2022-07-29T03:08:30;18.90;99.90
15357;DHT22;7778;48.792;9.260;2022-07-29T03:11:18;18.90;99.90
15357;DHT22;7778;48.792;9.260;2022-07-29T03:14:05;18.90;99.90
15357;DHT22;7778;48.792;9.260;2022-07-29T03:16:52;18.90;99.90
15357;DHT22;7778;48.792;9.260;2022-07-29T03:19:38;18.90;99.90
15357;DHT22;7778;48.792;9.260;2022-07-29T03:22:25;18.90;99.90
15357;DHT22;7778;48.792;9.260;2022-07-29T03:25:12;18.90;99.90
15357;DHT22;7778;48.792;9.260;2022-07-29T03:28:00;18.90;99.90
15357;DHT22;7778;48.792;9.260;2022-07-29T03:30:46;18.90;99.90
15357;DHT22;7778;48.792;9.260;2022-07-29T03:33:32;18.90;99.90
15357;DHT22;7778;48.792;9.260;2022-07-29T03:36:17;18.80;99.90
15357;DHT22;7778;48.792;9.260;2022-07-29T03:39:04;18.60;99.90
15357;DHT22;7778;48.792;9.260;2022-07-29T03:41:53;18.50;99.90
15357;DHT22;7778;48.792;9.260;2022-07-29T03:44:46;18.60;99.90
15357;DHT22;7778;48.792;9.260;2022-07-29T03:47:35;18.60;99.90
15357;DHT22;7778;48.792;9.260;2022-07-29T03:50:24;18.60;99.90
15357;DHT22;7778;48.792;9.260;2022-07-29T03:53:11;18.70;99.90
15357;DHT22;7778;48.792;9.260;2022-07-29T03:55:59;18.80;99.90
15357;DHT22;7778;48.792;9.260;2022-07-29T03:58:47;18.80;99.90
15357;DHT22;7778;48.792;9.260;2022-07-29T04:01:34;18.90;99.90
15357;DHT22;7778;48.792;9.260;2022-07-29T04:04:21;18.90;99.90
15357;DHT22;7778;48.792;9.260;2022-07-29T04:07:07;18.90;99.90
15357;DHT22;7778;48.792;9.260;2022-07-29T04:09:56;19.00;99.90
15357;DHT22;7778;48.792;9.260;2022-07-29T04:12:42;19.10;99.90
15357;DHT22;7778;48.792;9.260;2022-07-29T04:15:28;19.10;99.90
15357;DHT22;7778;48.792;9.260;2022-07-29T04:18:15;19.20;99.90
15357;DHT22;7778;48.792;9.260;2022-07-29T04:21:01;19.10;99.90
15357;DHT22;7778;48.792;9.260;2022-07-29T04:23:48;19.20;99.90
15357;DHT22;7778;48.792;9.260;2022-07-29T04:26:34;19.30;99.90
15357;DHT22;7778;48.792;9.260;2022-07-29T04:29:20;19.30;99.90
15357;DHT22;7778;48.792;9.260;2022-07-29T04:32:06;19.30;99.90
15357;DHT22;7778;48.792;9.260;2022-07-29T04:34:53;19.30;99.90
15357;DHT22;7778;48.792;9.260;2022-07-29T04:37:39;19.30;99.90
15357;DHT22;7778;48.792;9.260;2022-07-29T04:40:24;19.30;99.90
15357;DHT22;7778;48.792;9.260;2022-07-29T04:43:10;19.30;99.90
15357;DHT22;7778;48.792;9.260;2022-07-29T04:45:55;19.40;99.90
15357;DHT22;7778;48.792;9.260;2022-07-29T04:48:41;19.50;99.90
15357;DHT22;7778;48.792;9.260;2022-07-29T04:51:29;19.60;99.90
15357;DHT22;7778;48.792;9.260;2022-07-29T04:54:14;19.70;99.90
15357;DHT22;7778;48.792;9.260;2022-07-29T04:57:00;19.80;99.90
15357;DHT22;7778;48.792;9.260;2022-07-29T04:59:46;19.80;99.90
15357;DHT22;7778;48.792;9.260;2022-07-29T05:02:32;19.80;99.90
15357;DHT22;7778;48.792;9.260;2022-07-29T05:05:18;19.80;99.90
15357;DHT22;7778;48.792;9.260;2022-07-29T05:08:05;19.70;99.90
15357;DHT22;7778;48.792;9.260;2022-07-29T05:10:51;19.50;99.90
15357;DHT22;7778;48.792;9.260;2022-07-29T05:13:37;19.80;99.90
15357;DHT22;7778;48.792;9.260;2022-07-29T05:16:23;20.50;99.90
15357;DHT22;7778;48.792;9.260;2022-07-29T05:19:09;21.30;99.90
15357;DHT22;7778;48.792;9.260;2022-07-29T05:21:54;22.30;99.90
15357;DHT22;7778;48.792;9.260;2022-07-29T05:24:41;23.20;99.90
15357;DHT22;7778;48.792;9.260;2022-07-29T05:27:27;24.50;99.90
15357;DHT22;7778;48.792;9.260;2022-07-29T05:30:13;25.10;99.90
15357;DHT22;7778;48.792;9.260;2022-07-29T05:32:59;24.50;99.90
15357;DHT22;7778;48.792;9.260;2022-07-29T05:35:45;24.50;99.90
15357;DHT22;7778;48.792;9.260;2022-07-29T05:38:30;23.80;99.90
15357;DHT22;7778;48.792;9.260;2022-07-29T05:41:17;23.70;99.90
15357;DHT22;7778;48.792;9.260;2022-07-29T05:44:03;24.20;99.90
15357;DHT22;7778;48.792;9.260;2022-07-29T05:46:49;24.90;99.90
15357;DHT22;7778;48.792;9.260;2022-07-29T05:49:34;25.00;99.90
15357;DHT22;7778;48.792;9.260;2022-07-29T05:52:21;24.90;99.90
15357;DHT22;7778;48.792;9.260;2022-07-29T05:55:07;24.80;99.90
15357;DHT22;7778;48.792;9.260;2022-07-29T05:57:55;25.10;99.90
15357;DHT22;7778;48.792;9.260;2022-07-29T06:00:41;25.10;99.90
15357;DHT22;7778;48.792;9.260;2022-07-29T06:03:27;24.90;99.90
15357;DHT22;7778;48.792;9.260;2022-07-29T06:06:14;25.20;99.90
15357;DHT22;7778;48.792;9.260;2022-07-29T06:08:59;25.30;99.90
15357;DHT22;7778;48.792;9.260;2022-07-29T06:11:45;25.40;99.90
15357;DHT22;7778;48.792;9.260;2022-07-29T06:14:32;25.40;99.90
15357;DHT22;7778;48.792;9.260;2022-07-29T06:17:19;26.20;99.90
15357;DHT22;7778;48.792;9.260;2022-07-29T06:20:05;27.30;99.90
15357;DHT22;7778;48.792;9.260;2022-07-29T06:22:52;27.60;99.90
15357;DHT22;7778;48.792;9.260;2022-07-29T06:25:39;27.50;99.90
15357;DHT22;7778;48.792;9.260;2022-07-29T06:28:25;28.30;99.90
15357;DHT22;7778;48.792;9.260;2022-07-29T06:31:13;28.40;99.90
15357;DHT22;7778;48.792;9.260;2022-07-29T06:33:59;28.30;99.90
15357;DHT22;7778;48.792;9.260;2022-07-29T06:36:44;27.80;99.90
15357;DHT22;7778;48.792;9.260;2022-07-29T06:39:30;27.40;99.90
15357;DHT22;7778;48.792;9.260;2022-07-29T06:42:16;27.30;99.90
15357;DHT22;7778;48.792;9.260;2022-07-29T06:45:01;27.70;99.90
15357;DHT22;7778;48.792;9.260;2022-07-29T06:47:49;29.00;99.90
15357;DHT22;7778;48.792;9.260;2022-07-29T06:50:34;29.90;99.90
15357;DHT22;7778;48.792;9.260;2022-07-29T06:53:20;29.70;99.90
15357;DHT22;7778;48.792;9.260;2022-07-29T06:56:07;29.80;99.90
15357;DHT22;7778;48.792;9.260;2022-07-29T06:58:53;29.90;99.90
15357;DHT22;7778;48.792;9.260;2022-07-29T07:01:41;29.10;99.90
15357;DHT22;7778;48.792;9.260;2022-07-29T07:04:29;28.30;99.90
15357;DHT22;7778;48.792;9.260;2022-07-29T07:07:15;28.60;99.90
15357;DHT22;7778;48.792;9.260;2022-07-29T07:10:01;28.40;99.90
15357;DHT22;7778;48.792;9.260;2022-07-29T07:12:46;28.50;99.90
15357;DHT22;7778;48.792;9.260;2022-07-29T07:15:32;28.70;99.90
15357;DHT22;7778;48.792;9.260;2022-07-29T07:18:18;28.80;99.90
15357;DHT22;7778;48.792;9.260;2022-07-29T07:21:05;29.50;99.90
15357;DHT22;7778;48.792;9.260;2022-07-29T07:23:51;29.40;99.90
15357;DHT22;7778;48.792;9.260;2022-07-29T07:26:36;29.00;99.90
15357;DHT22;7778;48.792;9.260;2022-07-29T07:29:23;29.90;99.90
15357;DHT22;7778;48.792;9.260;2022-07-29T07:32:09;29.40;99.90
15357;DHT22;7778;48.792;9.260;2022-07-29T07:34:54;29.60;99.90
15357;DHT22;7778;48.792;9.260;2022-07-29T07:37:42;30.20;99.90
15357;DHT22;7778;48.792;9.260;2022-07-29T07:40:28;29.60;99.90
15357;DHT22;7778;48.792;9.260;2022-07-29T07:43:13;28.40;99.90
15357;DHT22;7778;48.792;9.260;2022-07-29T07:45:59;27.70;99.90
15357;DHT22;7778;48.792;9.260;2022-07-29T07:48:45;28.70;99.90
15357;DHT22;7778;48.792;9.260;2022-07-29T07:51:30;29.00;99.90
15357;DHT22;7778;48.792;9.260;2022-07-29T07:54:17;28.70;99.90
15357;DHT22;7778;48.792;9.260;2022-07-29T07:57:03;29.30;99.90
15357;DHT22;7778;48.792;9.260;2022-07-29T07:59:49;30.60;99.90
15357;DHT22;7778;48.792;9.260;2022-07-29T08:02:35;31.70;99.90
15357;DHT22;7778;48.792;9.260;2022-07-29T08:05:20;31.90;99.90
15357;DHT22;7778;48.792;9.260;2022-07-29T08:08:06;31.70;99.90
15357;DHT22;7778;48.792;9.260;2022-07-29T08:10:53;30.20;99.90
15357;DHT22;7778;48.792;9.260;2022-07-29T08:13:40;30.20;99.90
15357;DHT22;7778;48.792;9.260;2022-07-29T08:16:25;29.50;99.90
15357;DHT22;7778;48.792;9.260;2022-07-29T08:19:12;31.00;99.90
15357;DHT22;7778;48.792;9.260;2022-07-29T08:21:58;30.80;99.90
15357;DHT22;7778;48.792;9.260;2022-07-29T08:24:44;31.00;99.90
15357;DHT22;7778;48.792;9.260;2022-07-29T08:27:37;32.10;99.90
15357;DHT22;7778;48.792;9.260;2022-07-29T08:30:23;34.00;99.90
15357;DHT22;7778;48.792;9.260;2022-07-29T08:33:09;34.70;99.90
15357;DHT22;7778;48.792;9.260;2022-07-29T08:35:55;34.90;97.70
15357;DHT22;7778;48.792;9.260;2022-07-29T08:38:44;34.40;98.40
15357;DHT22;7778;48.792;9.260;2022-07-29T08:41:30;33.40;98.40
15357;DHT22;7778;48.792;9.260;2022-07-29T08:44:18;33.20;98.20
15357;DHT22;7778;48.792;9.260;2022-07-29T08:47:05;32.20;99.60
15357;DHT22;7778;48.792;9.260;2022-07-29T08:49:51;32.00;99.90
15357;DHT22;7778;48.792;9.260;2022-07-29T08:52:39;33.10;98.20
15357;DHT22;7778;48.792;9.260;2022-07-29T08:55:25;33.50;97.70
15357;DHT22;7778;48.792;9.260;2022-07-29T08:58:11;34.20;97.70
15357;DHT22;7778;48.792;9.260;2022-07-29T09:01:01;35.10;95.10
15357;DHT22;7778;48.792;9.260;2022-07-29T09:03:49;35.00;93.40
15357;DHT22;7778;48.792;9.260;2022-07-29T09:06:40;34.90;92.70
15357;DHT22;7778;48.792;9.260;2022-07-29T09:09:28;35.20;92.90
15357;DHT22;7778;48.792;9.260;2022-07-29T09:12:15;35.20;91.60
15357;DHT22;7778;48.792;9.260;2022-07-29T09:15:00;34.80;91.70
15357;DHT22;7778;48.792;9.260;2022-07-29T09:17:48;35.20;91.70
15357;DHT22;7778;48.792;9.260;2022-07-29T09:20:35;35.90;91.00
15357;DHT22;7778;48.792;9.260;2022-07-29T09:23:39;36.00;86.80
15357;DHT22;7778;48.792;9.260;2022-07-29T09:26:28;35.30;87.90
15357;DHT22;7778;48.792;9.260;2022-07-29T09:29:16;34.80;89.00
15357;DHT22;7778;48.792;9.260;2022-07-29T09:32:06;34.10;90.40
15357;DHT22;7778;48.792;9.260;2022-07-29T09:35:15;32.80;91.30
15357;DHT22;7778;48.792;9.260;2022-07-29T09:38:11;32.30;91.90
15357;DHT22;7778;48.792;9.260;2022-07-29T09:40:59;33.60;91.20
15357;DHT22;7778;48.792;9.260;2022-07-29T09:43:53;34.20;90.30
15357;DHT22;7778;48.792;9.260;2022-07-29T09:46:41;34.60;86.90
15357;DHT22;7778;48.792;9.260;2022-07-29T09:49:52;35.10;86.70
15357;DHT22;7778;48.792;9.260;2022-07-29T09:52:47;34.70;84.10
15357;DHT22;7778;48.792;9.260;2022-07-29T09:55:40;33.90;83.60
15357;DHT22;7778;48.792;9.260;2022-07-29T09:58:32;33.60;87.60
15357;DHT22;7778;48.792;9.260;2022-07-29T10:01:27;34.40;87.10
15357;DHT22;7778;48.792;9.260;2022-07-29T10:04:13;35.00;83.00
15357;DHT22;7778;48.792;9.260;2022-07-29T10:07:01;34.70;81.40
15357;DHT22;7778;48.792;9.260;2022-07-29T10:09:57;34.20;83.60
15357;DHT22;7778;48.792;9.260;2022-07-29T10:12:51;33.40;83.30
15357;DHT22;7778;48.792;9.260;2022-07-29T10:15:39;33.20;84.90
15357;DHT22;7778;48.792;9.260;2022-07-29T10:18:28;33.40;84.60
15357;DHT22;7778;48.792;9.260;2022-07-29T10:21:15;33.60;84.60
15357;DHT22;7778;48.792;9.260;2022-07-29T10:24:01;32.70;80.30
15357;DHT22;7778;48.792;9.260;2022-07-29T10:26:48;31.70;82.20
15357;DHT22;7778;48.792;9.260;2022-07-29T10:29:34;31.00;86.60
15357;DHT22;7778;48.792;9.260;2022-07-29T10:32:39;31.30;86.40
15357;DHT22;7778;48.792;9.260;2022-07-29T10:35:49;30.70;86.70
15357;DHT22;7778;48.792;9.260;2022-07-29T10:38:44;30.30;87.50
15357;DHT22;7778;48.792;9.260;2022-07-29T10:44:54;29.40;90.80
15357;DHT22;7778;48.792;9.260;2022-07-29T10:47:40;29.30;91.30
15357;DHT22;7778;48.792;9.260;2022-07-29T10:50:26;29.10;91.80
15357;DHT22;7778;48.792;9.260;2022-07-29T10:53:12;28.90;92.50
15357;DHT22;7778;48.792;9.260;2022-07-29T10:55:58;28.30;93.70
15357;DHT22;7778;48.792;9.260;2022-07-29T10:59:23;28.10;96.90
15357;DHT22;7778;48.792;9.260;2022-07-29T11:02:43;27.50;99.90
15357;DHT22;7778;48.792;9.260;2022-07-29T11:05:51;27.00;99.90
15357;DHT22;7778;48.792;9.260;2022-07-29T11:08:38;26.50;99.90
15357;DHT22;7778;48.792;9.260;2022-07-29T11:11:34;26.10;99.90
15357;DHT22;7778;48.792;9.260;2022-07-29T11:14:55;26.00;99.90
15357;DHT22;7778;48.792;9.260;2022-07-29T11:18:08;25.70;99.90
15357;DHT22;7778;48.792;9.260;2022-07-29T11:20:54;25.20;99.90
15357;DHT22;7778;48.792;9.260;2022-07-29T11:23:40;24.70;99.90
15357;DHT22;7778;48.792;9.260;2022-07-29T11:26:27;24.40;99.90
15357;DHT22;7778;48.792;9.260;2022-07-29T11:29:19;23.90;99.90
15357;DHT22;7778;48.792;9.260;2022-07-29T11:32:12;23.00;99.90
15357;DHT22;7778;48.792;9.260;2022-07-29T11:35:14;22.60;99.90
15357;DHT22;7778;48.792;9.260;2022-07-29T11:38:24;21.70;99.90
15357;DHT22;7778;48.792;9.260;2022-07-29T11:41:22;20.90;99.90
15357;DHT22;7778;48.792;9.260;2022-07-29T11:44:09;20.80;99.90
15357;DHT22;7778;48.792;9.260;2022-07-29T11:46:55;21.10;99.90
15357;DHT22;7778;48.792;9.260;2022-07-29T11:49:44;21.00;99.90
15357;DHT22;7778;48.792;9.260;2022-07-29T11:52:33;21.00;99.90
15357;DHT22;7778;48.792;9.260;2022-07-29T11:55:22;21.00;99.90
15357;DHT22;7778;48.792;9.260;2022-07-29T11:58:09;20.80;99.90
15357;DHT22;7778;48.792;9.260;2022-07-29T12:01:00;20.80;99.90
15357;DHT22;7778;48.792;9.260;2022-07-29T12:03:47;20.90;99.90
15357;DHT22;7778;48.792;9.260;2022-07-29T12:06:35;20.90;99.90
15357;DHT22;7778;48.792;9.260;2022-07-29T12:09:22;21.00;99.90
15357;DHT22;7778;48.792;9.260;2022-07-29T12:12:09;21.10;99.90
15357;DHT22;7778;48.792;9.260;2022-07-29T12:14:56;20.70;99.90
15357;DHT22;7778;48.792;9.260;2022-07-29T12:17:42;20.70;99.90
15357;DHT22;7778;48.792;9.260;2022-07-29T12:20:29;20.80;99.90
15357;DHT22;7778;48.792;9.260;2022-07-29T12:23:19;20.60;99.90
15357;DHT22;7778;48.792;9.260;2022-07-29T12:26:06;20.50;99.90
15357;DHT22;7778;48.792;9.260;2022-07-29T12:28:52;20.40;99.90
15357;DHT22;7778;48.792;9.260;2022-07-29T12:31:39;20.60;99.90
15357;DHT22;7778;48.792;9.260;2022-07-29T12:34:27;20.70;99.90
15357;DHT22;7778;48.792;9.260;2022-07-29T12:37:15;21.00;99.90
15357;DHT22;7778;48.792;9.260;2022-07-29T12:40:04;21.50;99.90
15357;DHT22;7778;48.792;9.260;2022-07-29T12:43:12;21.90;99.90
15357;DHT22;7778;48.792;9.260;2022-07-29T12:46:12;22.40;99.90
15357;DHT22;7778;48.792;9.260;2022-07-29T12:48:59;22.70;99.90
15357;DHT22;7778;48.792;9.260;2022-07-29T12:51:45;22.70;99.90
15357;DHT22;7778;48.792;9.260;2022-07-29T12:54:31;22.50;99.90
15357;DHT22;7778;48.792;9.260;2022-07-29T12:57:20;22.40;99.90
15357;DHT22;7778;48.792;9.260;2022-07-29T13:00:08;22.30;99.90
15357;DHT22;7778;48.792;9.260;2022-07-29T13:02:58;22.00;99.90
15357;DHT22;7778;48.792;9.260;2022-07-29T13:05:45;21.90;99.90
15357;DHT22;7778;48.792;9.260;2022-07-29T13:08:32;22.10;99.90
15357;DHT22;7778;48.792;9.260;2022-07-29T13:11:28;22.20;99.90
15357;DHT22;7778;48.792;9.260;2022-07-29T13:14:30;22.20;99.90
15357;DHT22;7778;48.792;9.260;2022-07-29T13:17:18;22.10;99.90
15357;DHT22;7778;48.792;9.260;2022-07-29T13:20:08;21.90;99.90
15357;DHT22;7778;48.792;9.260;2022-07-29T13:22:57;21.70;99.90
15357;DHT22;7778;48.792;9.260;2022-07-29T13:25:45;21.80;99.90
15357;DHT22;7778;48.792;9.260;2022-07-29T13:28:31;21.80;99.90
15357;DHT22;7778;48.792;9.260;2022-07-29T13:31:18;21.70;99.90
15357;DHT22;7778;48.792;9.260;2022-07-29T13:34:05;21.70;99.90
15357;DHT22;7778;48.792;9.260;2022-07-29T13:36:51;21.50;99.90
15357;DHT22;7778;48.792;9.260;2022-07-29T13:39:38;21.10;99.90
15357;DHT22;7778;48.792;9.260;2022-07-29T13:42:25;20.80;99.90
15357;DHT22;7778;48.792;9.260;2022-07-29T13:45:12;20.70;99.90
15357;DHT22;7778;48.792;9.260;2022-07-29T13:48:00;20.50;99.90
15357;DHT22;7778;48.792;9.260;2022-07-29T13:50:46;20.40;99.90
15357;DHT22;7778;48.792;9.260;2022-07-29T13:53:32;20.50;99.90
15357;DHT22;7778;48.792;9.260;2022-07-29T13:56:18;20.60;99.90
15357;DHT22;7778;48.792;9.260;2022-07-29T13:59:04;20.60;99.90
15357;DHT22;7778;48.792;9.260;2022-07-29T14:01:50;20.70;99.90
15357;DHT22;7778;48.792;9.260;2022-07-29T14:04:37;20.90;99.90
15357;DHT22;7778;48.792;9.260;2022-07-29T14:07:23;21.10;99.90
15357;DHT22;7778;48.792;9.260;2022-07-29T14:10:09;21.30;99.90
15357;DHT22;7778;48.792;9.260;2022-07-29T14:12:55;21.70;99.90
15357;DHT22;7778;48.792;9.260;2022-07-29T14:15:40;22.10;99.90
15357;DHT22;7778;48.792;9.260;2022-07-29T14:18:26;22.30;99.90
15357;DHT22;7778;48.792;9.260;2022-07-29T14:21:13;22.70;99.90
15357;DHT22;7778;48.792;9.260;2022-07-29T14:23:59;22.50;99.90
15357;DHT22;7778;48.792;9.260;2022-07-29T14:26:44;22.60;99.90
15357;DHT22;7778;48.792;9.260;2022-07-29T14:29:30;22.70;99.90
15357;DHT22;7778;48.792;9.260;2022-07-29T14:32:16;23.00;99.90
15357;DHT22;7778;48.792;9.260;2022-07-29T14:35:02;23.20;99.90
15357;DHT22;7778;48.792;9.260;2022-07-29T14:37:49;23.20;99.90
15357;DHT22;7778;48.792;9.260;2022-07-29T14:40:35;23.10;99.90
15357;DHT22;7778;48.792;9.260;2022-07-29T14:43:22;22.80;99.90
15357;DHT22;7778;48.792;9.260;2022-07-29T14:46:07;22.80;99.90
15357;DHT22;7778;48.792;9.260;2022-07-29T14:48:53;22.40;99.90
15357;DHT22;7778;48.792;9.260;2022-07-29T14:51:38;22.30;99.90
15357;DHT22;7778;48.792;9.260;2022-07-29T14:54:26;22.20;99.90
15357;DHT22;7778;48.792;9.260;2022-07-29T14:57:12;22.20;99.90
15357;DHT22;7778;48.792;9.260;2022-07-29T14:59:57;22.00;99.90
15357;DHT22;7778;48.792;9.260;2022-07-29T15:02:43;22.10;99.90
15357;DHT22;7778;48.792;9.260;2022-07-29T15:05:29;22.10;99.90
15357;DHT22;7778;48.792;9.260;2022-07-29T15:08:15;22.20;99.90
15357;DHT22;7778;48.792;9.260;2022-07-29T15:11:02;22.50;99.90
15357;DHT22;7778;48.792;9.260;2022-07-29T15:13:48;22.60;99.90
15357;DHT22;7778;48.792;9.260;2022-07-29T15:16:35;22.50;99.90
15357;DHT22;7778;48.792;9.260;2022-07-29T15:19:21;22.50;99.90
15357;DHT22;7778;48.792;9.260;2022-07-29T15:22:06;22.70;99.90
15357;DHT22;7778;48.792;9.260;2022-07-29T15:24:52;22.80;99.90
15357;DHT22;7778;48.792;9.260;2022-07-29T15:27:39;22.80;99.90
15357;DHT22;7778;48.792;9.260;2022-07-29T15:30:25;22.90;99.90
15357;DHT22;7778;48.792;9.260;2022-07-29T15:33:11;22.70;99.90
15357;DHT22;7778;48.792;9.260;2022-07-29T15:35:57;22.80;99.90
15357;DHT22;7778;48.792;9.260;2022-07-29T15:38:42;22.80;99.90
15357;DHT22;7778;48.792;9.260;2022-07-29T15:41:29;22.50;99.90
15357;DHT22;7778;48.792;9.260;2022-07-29T15:44:16;22.30;99.90
15357;DHT22;7778;48.792;9.260;2022-07-29T15:47:02;22.50;99.90
15357;DHT22;7778;48.792;9.260;2022-07-29T15:49:48;22.70;99.90
15357;DHT22;7778;48.792;9.260;2022-07-29T15:52:33;22.80;99.90
15357;DHT22;7778;48.792;9.260;2022-07-29T15:55:19;22.80;99.90
15357;DHT22;7778;48.792;9.260;2022-07-29T15:58:04;22.60;99.90
15357;DHT22;7778;48.792;9.260;2022-07-29T16:00:52;22.50;99.90
15357;DHT22;7778;48.792;9.260;2022-07-29T16:03:38;22.40;99.90
15357;DHT22;7778;48.792;9.260;2022-07-29T16:06:23;22.60;99.90
15357;DHT22;7778;48.792;9.260;2022-07-29T16:09:09;22.70;99.90
15357;DHT22;7778;48.792;9.260;2022-07-29T16:11:55;22.80;99.90
15357;DHT22;7778;48.792;9.260;2022-07-29T16:14:41;23.00;99.90
15357;DHT22;7778;48.792;9.260;2022-07-29T16:17:28;22.90;99.90
15357;DHT22;7778;48.792;9.260;2022-07-29T16:20:15;23.00;99.90
15357;DHT22;7778;48.792;9.260;2022-07-29T16:23:00;22.80;99.90
15357;DHT22;7778;48.792;9.260;2022-07-29T16:25:47;22.70;99.90
15357;DHT22;7778;48.792;9.260;2022-07-29T16:28:33;22.90;99.90
15357;DHT22;7778;48.792;9.260;2022-07-29T16:31:19;22.70;99.90
15357;DHT22;7778;48.792;9.260;2022-07-29T16:34:07;22.80;99.90
15357;DHT22;7778;48.792;9.260;2022-07-29T16:36:53;23.10;99.90
15357;DHT22;7778;48.792;9.260;2022-07-29T16:39:39;23.20;99.90
15357;DHT22;7778;48.792;9.260;2022-07-29T16:42:24;23.20;99.90
15357;DHT22;7778;48.792;9.260;2022-07-29T16:45:10;23.30;99.90
15357;DHT22;7778;48.792;9.260;2022-07-29T16:47:56;23.30;99.90
15357;DHT22;7778;48.792;9.260;2022-07-29T16:50:43;23.20;99.90
15357;DHT22;7778;48.792;9.260;2022-07-29T16:53:29;23.10;99.90
15357;DHT22;7778;48.792;9.260;2022-07-29T16:56:14;23.20;99.90
15357;DHT22;7778;48.792;9.260;2022-07-29T16:59:00;23.30;99.90
15357;DHT22;7778;48.792;9.260;2022-07-29T17:01:46;23.10;99.90
15357;DHT22;7778;48.792;9.260;2022-07-29T17:04:32;23.00;99.90
15357;DHT22;7778;48.792;9.260;2022-07-29T17:07:19;23.00;99.90
15357;DHT22;7778;48.792;9.260;2022-07-29T17:10:06;23.00;99.90
15357;DHT22;7778;48.792;9.260;2022-07-29T17:12:53;22.80;99.90
15357;DHT22;7778;48.792;9.260;2022-07-29T17:15:38;22.80;99.90
15357;DHT22;7778;48.792;9.260;2022-07-29T17:18:25;22.70;99.90
15357;DHT22;7778;48.792;9.260;2022-07-29T17:21:11;22.60;99.90
15357;DHT22;7778;48.792;9.260;2022-07-29T17:23:58;22.70;99.90
15357;DHT22;7778;48.792;9.260;2022-07-29T17:26:44;22.80;99.90
15357;DHT22;7778;48.792;9.260;2022-07-29T17:29:30;22.80;99.90
15357;DHT22;7778;48.792;9.260;2022-07-29T17:32:16;22.80;99.90
15357;DHT22;7778;48.792;9.260;2022-07-29T17:35:01;23.10;99.90
15357;DHT22;7778;48.792;9.260;2022-07-29T17:38:07;23.00;99.90
15357;DHT22;7778;48.792;9.260;2022-07-29T17:40:54;22.90;99.90
15357;DHT22;7778;48.792;9.260;2022-07-29T17:43:40;23.10;99.90
15357;DHT22;7778;48.792;9.260;2022-07-29T17:46:26;23.20;99.90
15357;DHT22;7778;48.792;9.260;2022-07-29T17:49:12;23.20;99.90
15357;DHT22;7778;48.792;9.260;2022-07-29T17:51:58;23.30;99.90
15357;DHT22;7778;48.792;9.260;2022-07-29T17:54:44;23.30;99.90
15357;DHT22;7778;48.792;9.260;2022-07-29T17:57:33;23.30;99.90
15357;DHT22;7778;48.792;9.260;2022-07-29T18:00:19;23.20;99.90
15357;DHT22;7778;48.792;9.260;2022-07-29T18:03:08;23.20;99.90